首页
METAR-TAF:

METAR-TAF

机场 :

Puerto Cabezas, 尼加拉瓜

纬度: 14-03N, 经度: 083-22W, 海拔: 20米

当前天气观测

该预报发布于13小时和13分钟前的23:00 UTC
风速6节,风向东转东南
温度 28°C
湿度 84%
气压 1010 hPa
能見度: 7000
少量云层高于1600英尺

METAR: MNPC 262300Z 12006KT 7000 FEW016 28/25 Q1010 HZ

时间: 06:13 (12:13 UTC)

预报

该预报发布于14小时和50分钟前的21:23 UTC
预报有效从27日的 00点(UTC)到 27日的 24点(UTC)
风速6节,风向多变
能見度: 7000
少量云层高于1700英尺
短暂存在
从 27日的 16点(UTC)到 27日的 19点(UTC)
风速8节,风向东转东北
能見度: 6000
多云层高于1600英尺
附近有, 雨

TAF: MNPC 262123Z 2700/2724 VRB06KT 7000 HZ FEW017 TEMPO 2716/2719 07008KT 6000 VCRA BKN016

超过4000个机场的气象观测和天气预报(METAR&TAF报告)。

可查询的气象台以黄色和红色小点在地图上表示。

将鼠标移到小点上方,可查看气象台名称。

然后点击查看天气观测和预报。

如需切换地图:点击带黑十字的绿色按钮放大地图;点击带横线的绿色按钮缩小地图;或者点击绿色箭头查看邻近地区的地图。


METAR-TAF: